createdAt,value
2019-05-17T00:00:16.818Z,7.62
2019-05-17T00:01:16.782Z,7.62
2019-05-17T00:02:17.553Z,7.61
2019-05-17T00:03:17.101Z,7.61
2019-05-17T00:04:16.645Z,7.58
2019-05-17T00:05:17.688Z,7.61
2019-05-17T00:06:17.175Z,7.61
2019-05-17T00:07:16.790Z,7.57
2019-05-17T00:08:29.734Z,7.57
2019-05-17T00:09:17.540Z,7.58
2019-05-17T00:10:17.415Z,7.58
2019-05-17T00:11:17.075Z,7.57
2019-05-17T00:12:16.651Z,7.53
2019-05-17T00:13:17.460Z,7.57
2019-05-17T00:14:16.916Z,7.54
2019-05-17T00:15:16.892Z,7.53
2019-05-17T00:16:17.403Z,7.51
2019-05-17T00:17:17.309Z,7.51
2019-05-17T00:18:17.193Z,7.51
2019-05-17T00:19:16.982Z,7.48
2019-05-17T00:20:17.248Z,7.47
2019-05-17T00:21:17.022Z,7.48
2019-05-17T00:22:16.774Z,7.47
2019-05-17T00:23:17.449Z,7.44
2019-05-17T00:24:18.238Z,7.45
2019-05-17T00:25:16.817Z,7.43
2019-05-17T00:26:17.120Z,7.43
2019-05-17T00:27:17.175Z,7.40
2019-05-17T00:28:16.663Z,7.38
2019-05-17T00:29:17.322Z,7.38
2019-05-17T00:30:17.493Z,7.35
2019-05-17T00:31:17.250Z,7.34
2019-05-17T00:32:17.055Z,7.30
2019-05-17T00:33:17.026Z,7.30
2019-05-17T00:34:16.864Z,7.27
2019-05-17T00:35:17.753Z,7.29
2019-05-17T00:36:17.784Z,7.24
2019-05-17T00:37:17.329Z,7.23
2019-05-17T00:38:17.032Z,7.19
2019-05-17T00:39:16.738Z,7.19
2019-05-17T00:40:17.179Z,7.13
2019-05-17T00:41:17.582Z,7.12
2019-05-17T00:42:17.226Z,7.13
2019-05-17T00:43:16.986Z,7.12
2019-05-17T00:44:16.831Z,7.13
2019-05-17T00:45:17.494Z,7.09
2019-05-17T00:46:17.302Z,7.09
2019-05-17T00:47:17.171Z,7.09
2019-05-17T00:48:17.103Z,7.07
2019-05-17T00:49:17.200Z,7.06
2019-05-17T00:50:17.137Z,7.03
2019-05-17T00:51:16.831Z,7.03
2019-05-17T00:52:17.130Z,7.00
2019-05-17T00:53:16.484Z,6.95
2019-05-17T00:54:17.388Z,6.94
2019-05-17T00:55:17.469Z,6.98
2019-05-17T00:56:17.196Z,6.96
2019-05-17T00:57:16.716Z,6.96
2019-05-17T00:58:17.365Z,6.95
2019-05-17T00:59:17.149Z,6.92
2019-05-17T01:00:17.112Z,6.92
2019-05-17T01:01:16.607Z,6.94
2019-05-17T01:02:16.875Z,6.91
2019-05-17T01:03:17.142Z,6.88
2019-05-17T01:04:17.257Z,6.84
2019-05-17T01:05:17.224Z,6.85
2019-05-17T01:06:16.997Z,6.81
2019-05-17T01:07:17.691Z,6.81
2019-05-17T01:08:17.514Z,6.78
2019-05-17T01:09:17.079Z,6.76
2019-05-17T01:10:16.685Z,6.75
2019-05-17T01:11:16.611Z,6.76
2019-05-17T01:12:16.898Z,6.76
2019-05-17T01:13:17.374Z,6.75
2019-05-17T01:14:17.492Z,6.79
2019-05-17T01:15:16.996Z,6.79
2019-05-17T01:16:16.665Z,6.78
2019-05-17T01:17:17.014Z,6.76
2019-05-17T01:18:16.386Z,6.79
2019-05-17T01:19:16.671Z,6.75
2019-05-17T01:20:17.444Z,6.75
2019-05-17T01:21:17.031Z,6.75
2019-05-17T01:22:16.838Z,6.75
2019-05-17T01:23:16.677Z,6.72
2019-05-17T01:24:17.374Z,6.71
2019-05-17T01:25:17.247Z,6.72
2019-05-17T01:26:18.381Z,6.74
2019-05-17T01:27:17.294Z,6.71
2019-05-17T01:28:16.620Z,6.69
2019-05-17T01:29:17.442Z,6.69
2019-05-17T01:30:17.427Z,6.69
2019-05-17T01:31:17.311Z,6.69
2019-05-17T01:32:17.161Z,6.68
2019-05-17T01:33:17.064Z,6.67
2019-05-17T01:34:16.848Z,6.67
2019-05-17T01:35:17.177Z,6.65
2019-05-17T01:36:17.284Z,6.64
2019-05-17T01:37:17.248Z,6.63
2019-05-17T01:38:17.674Z,6.64
2019-05-17T01:39:18.560Z,6.59
2019-05-17T01:40:17.512Z,6.59
2019-05-17T01:41:17.429Z,6.57
2019-05-17T01:42:17.272Z,6.57
2019-05-17T01:43:16.762Z,6.58
2019-05-17T01:44:17.075Z,6.58
2019-05-17T01:45:16.757Z,6.54
2019-05-17T01:46:17.347Z,6.54
2019-05-17T01:47:16.765Z,6.55
2019-05-17T01:48:17.070Z,6.52
2019-05-17T01:49:16.521Z,6.54
2019-05-17T01:50:17.433Z,6.51
2019-05-17T01:51:17.102Z,6.48
2019-05-17T01:52:16.814Z,6.48
2019-05-17T01:53:17.205Z,6.44
2019-05-17T01:54:17.485Z,6.45
2019-05-17T01:55:17.472Z,6.44
2019-05-17T01:56:16.985Z,6.41
2019-05-17T01:57:16.905Z,6.40
2019-05-17T01:58:16.426Z,6.40
2019-05-17T01:59:17.352Z,6.44
2019-05-17T02:00:17.450Z,6.41
2019-05-17T02:01:17.103Z,6.36
2019-05-17T02:02:16.475Z,6.36
2019-05-17T02:03:17.295Z,6.33
2019-05-17T02:04:17.336Z,6.31
2019-05-17T02:05:17.359Z,6.29
2019-05-17T02:06:16.779Z,6.30
2019-05-17T02:07:17.318Z,6.31
2019-05-17T02:08:17.125Z,6.31
2019-05-17T02:09:32.454Z,6.30
2019-05-17T02:10:17.151Z,6.33
2019-05-17T02:11:18.346Z,6.29
2019-05-17T02:12:17.269Z,6.27
2019-05-17T02:13:16.674Z,6.24
2019-05-17T02:14:16.959Z,6.27
2019-05-17T02:15:16.528Z,6.29
2019-05-17T02:16:16.936Z,6.23
2019-05-17T02:17:17.472Z,6.23
2019-05-17T02:18:17.323Z,6.23
2019-05-17T02:19:17.393Z,6.26
2019-05-17T02:20:17.137Z,6.29
2019-05-17T02:21:16.961Z,6.26
2019-05-17T02:22:16.800Z,6.27
2019-05-17T02:23:17.462Z,6.27
2019-05-17T02:24:17.058Z,6.23
2019-05-17T02:25:16.798Z,6.23
2019-05-17T02:26:17.313Z,6.21
2019-05-17T02:27:16.745Z,6.17
2019-05-17T02:28:17.011Z,6.16
2019-05-17T02:29:16.566Z,6.16
2019-05-17T02:30:16.868Z,6.13
2019-05-17T02:31:16.909Z,6.10
2019-05-17T02:32:17.171Z,6.08
2019-05-17T02:33:16.448Z,6.10
2019-05-17T02:34:16.719Z,6.05
2019-05-17T02:35:16.996Z,6.08
2019-05-17T02:36:16.269Z,6.06
2019-05-17T02:37:16.549Z,6.05
2019-05-17T02:38:16.816Z,6.05
2019-05-17T02:39:17.124Z,6.05
2019-05-17T02:40:16.409Z,6.03
2019-05-17T02:41:16.491Z,6.06
2019-05-17T02:42:16.772Z,6.03
2019-05-17T02:43:17.041Z,6.02
2019-05-17T02:44:16.334Z,6.02
2019-05-17T02:45:16.606Z,6.05
2019-05-17T02:46:16.872Z,6.00
2019-05-17T02:47:17.159Z,5.96
2019-05-17T02:48:16.437Z,5.93
2019-05-17T02:49:16.716Z,5.92
2019-05-17T02:50:17.018Z,5.92
2019-05-17T02:51:17.042Z,5.88
2019-05-17T02:52:16.324Z,5.89
2019-05-17T02:53:16.600Z,5.89
2019-05-17T02:54:16.895Z,5.92
2019-05-17T02:55:17.178Z,5.91
2019-05-17T02:56:16.439Z,5.85
2019-05-17T02:57:16.710Z,5.88
2019-05-17T02:58:17.047Z,5.81
2019-05-17T02:59:16.356Z,5.78
2019-05-17T03:00:16.652Z,5.79
2019-05-17T03:01:16.697Z,5.77
2019-05-17T03:02:16.987Z,5.81
2019-05-17T03:03:16.258Z,5.79
2019-05-17T03:04:16.531Z,5.78
2019-05-17T03:05:16.812Z,5.77
2019-05-17T03:06:17.084Z,5.75
2019-05-17T03:07:16.380Z,5.75
2019-05-17T03:08:16.656Z,5.75
2019-05-17T03:09:16.945Z,5.74
2019-05-17T03:10:23.502Z,5.72
2019-05-17T03:11:16.265Z,5.72
2019-05-17T03:12:16.546Z,5.71
2019-05-17T03:13:17.967Z,5.71
2019-05-17T03:14:16.483Z,5.71
2019-05-17T03:15:16.766Z,5.68
2019-05-17T03:16:17.033Z,5.68
2019-05-17T03:17:16.298Z,5.65
2019-05-17T03:18:16.564Z,5.65
2019-05-17T03:19:16.843Z,5.62
2019-05-17T03:20:17.131Z,5.62
2019-05-17T03:21:17.196Z,5.65
2019-05-17T03:22:16.459Z,5.70
2019-05-17T03:23:16.762Z,5.68
2019-05-17T03:24:17.060Z,5.68
2019-05-17T03:25:16.324Z,5.68
2019-05-17T03:26:16.589Z,5.71
2019-05-17T03:27:16.878Z,5.71
2019-05-17T03:28:17.138Z,5.75
2019-05-17T03:29:16.408Z,5.72
2019-05-17T03:30:18.503Z,5.72
2019-05-17T03:31:17.592Z,5.74
2019-05-17T03:32:17.855Z,5.74
2019-05-17T03:33:16.908Z,5.77
2019-05-17T03:34:17.542Z,5.75
2019-05-17T03:35:17.567Z,5.78
2019-05-17T03:36:17.654Z,5.78
2019-05-17T03:37:16.667Z,5.78
2019-05-17T03:38:17.129Z,5.81
2019-05-17T03:39:16.405Z,5.78
2019-05-17T03:40:30.107Z,5.81
2019-05-17T03:41:23.121Z,5.85
2019-05-17T03:42:16.855Z,5.82
2019-05-17T03:43:17.130Z,5.84
2019-05-17T03:44:16.418Z,5.82
2019-05-17T03:45:16.818Z,5.82
2019-05-17T03:46:17.095Z,5.89
2019-05-17T03:47:16.374Z,5.85
2019-05-17T03:48:16.660Z,5.89
2019-05-17T03:49:16.932Z,5.85
2019-05-17T03:50:16.245Z,5.84
2019-05-17T03:51:16.305Z,5.88
2019-05-17T03:52:16.582Z,5.88
2019-05-17T03:53:16.868Z,5.84
2019-05-17T03:54:17.153Z,5.85
2019-05-17T03:55:16.424Z,5.85
2019-05-17T03:56:16.722Z,5.86
2019-05-17T03:57:17.006Z,5.88
2019-05-17T03:58:16.282Z,5.89
2019-05-17T03:59:16.552Z,5.91
2019-05-17T04:00:16.853Z,5.88
2019-05-17T04:01:16.938Z,5.88
2019-05-17T04:02:16.214Z,5.89
2019-05-17T04:03:16.504Z,5.92
2019-05-17T04:04:16.766Z,5.91
2019-05-17T04:05:17.039Z,5.93
2019-05-17T04:06:16.320Z,5.92
2019-05-17T04:07:16.581Z,5.93
2019-05-17T04:08:16.846Z,5.92
2019-05-17T04:09:17.119Z,5.91
2019-05-17T04:10:16.387Z,5.92
2019-05-17T04:11:21.922Z,5.95
2019-05-17T04:12:16.767Z,5.96
2019-05-17T04:13:17.030Z,5.95
2019-05-17T04:14:16.315Z,5.98
2019-05-17T04:15:16.636Z,6.02
2019-05-17T04:16:16.918Z,5.99
2019-05-17T04:17:17.183Z,5.98
2019-05-17T04:18:16.456Z,5.98
2019-05-17T04:19:16.727Z,5.98
2019-05-17T04:20:17.009Z,5.99
2019-05-17T04:21:17.069Z,6.02
2019-05-17T04:22:16.348Z,6.00
2019-05-17T04:23:16.658Z,6.00
2019-05-17T04:24:16.936Z,6.03
2019-05-17T04:25:16.224Z,6.02
2019-05-17T04:26:16.504Z,6.05
2019-05-17T04:27:16.769Z,6.05
2019-05-17T04:28:17.042Z,6.03
2019-05-17T04:29:16.332Z,6.09
2019-05-17T04:30:16.626Z,6.08
2019-05-17T04:31:16.691Z,6.12
2019-05-17T04:32:16.954Z,6.13
2019-05-17T04:33:16.224Z,6.10
2019-05-17T04:34:16.506Z,6.16
2019-05-17T04:35:16.792Z,6.14
2019-05-17T04:36:17.003Z,6.17
2019-05-17T04:37:16.258Z,6.17
2019-05-17T04:38:16.531Z,6.19
2019-05-17T04:39:16.824Z,6.20
2019-05-17T04:40:17.100Z,6.21
2019-05-17T04:41:33.184Z,6.20
2019-05-17T04:42:16.482Z,6.21
2019-05-17T04:43:16.757Z,6.24
2019-05-17T04:44:17.021Z,6.24
2019-05-17T04:45:16.318Z,6.27
2019-05-17T04:46:16.600Z,6.30
2019-05-17T04:47:16.875Z,6.30
2019-05-17T04:48:17.149Z,6.31
2019-05-17T04:49:16.433Z,6.34
2019-05-17T04:50:16.720Z,6.34
2019-05-17T04:51:16.792Z,6.37
2019-05-17T04:52:16.698Z,6.37
2019-05-17T04:53:16.971Z,6.44
2019-05-17T04:54:16.254Z,6.43
2019-05-17T04:55:16.532Z,6.45
2019-05-17T04:56:16.827Z,6.47
2019-05-17T04:57:17.105Z,6.47
2019-05-17T04:58:16.387Z,6.51
2019-05-17T04:59:16.675Z,6.49
2019-05-17T05:00:16.971Z,6.45
2019-05-17T05:01:17.002Z,6.45
2019-05-17T05:02:16.272Z,6.45
2019-05-17T05:03:16.559Z,6.45
2019-05-17T05:04:16.823Z,6.43
2019-05-17T05:05:17.092Z,6.45
2019-05-17T05:06:16.370Z,6.45
2019-05-17T05:07:16.648Z,6.45
2019-05-17T05:08:16.932Z,6.48
2019-05-17T05:09:17.216Z,6.49
2019-05-17T05:10:16.500Z,6.48
2019-05-17T05:11:16.560Z,6.48
2019-05-17T05:12:16.833Z,6.49
2019-05-17T05:13:17.116Z,6.54
2019-05-17T05:14:16.383Z,6.58
2019-05-17T05:15:16.650Z,6.61
2019-05-17T05:16:16.919Z,6.65
2019-05-17T05:17:17.197Z,6.69
2019-05-17T05:18:16.476Z,6.71
2019-05-17T05:19:16.747Z,6.74
2019-05-17T05:20:17.015Z,6.76
2019-05-17T05:21:17.073Z,6.81
2019-05-17T05:22:17.467Z,6.86
2019-05-17T05:23:17.071Z,6.92
2019-05-17T05:24:16.396Z,7.00
2019-05-17T05:25:16.687Z,7.17
2019-05-17T05:26:16.951Z,7.26
2019-05-17T05:27:16.210Z,7.34
2019-05-17T05:28:16.481Z,7.43
2019-05-17T05:29:16.760Z,7.44
2019-05-17T05:30:17.039Z,7.41
2019-05-17T05:31:17.091Z,7.38
2019-05-17T05:32:16.380Z,7.47
2019-05-17T05:33:16.642Z,7.51
2019-05-17T05:34:16.907Z,7.54
2019-05-17T05:35:17.202Z,7.72
2019-05-17T05:36:16.461Z,7.84
2019-05-17T05:37:16.722Z,7.81
2019-05-17T05:38:17.029Z,7.77
2019-05-17T05:39:16.314Z,7.75
2019-05-17T05:40:16.626Z,7.75
2019-05-17T05:41:16.650Z,8.02
2019-05-17T05:42:16.912Z,8.05
2019-05-17T05:43:17.172Z,8.14
2019-05-17T05:44:16.455Z,7.98
2019-05-17T05:45:16.710Z,7.88
2019-05-17T05:46:16.962Z,8.09
2019-05-17T05:47:16.226Z,8.12
2019-05-17T05:48:16.506Z,8.14
2019-05-17T05:49:16.772Z,8.30
2019-05-17T05:50:17.687Z,8.29
2019-05-17T05:51:17.102Z,8.36
2019-05-17T05:52:16.370Z,8.41
2019-05-17T05:53:16.640Z,8.44
2019-05-17T05:54:16.907Z,8.39
2019-05-17T05:55:17.181Z,8.51
2019-05-17T05:56:16.455Z,8.57
2019-05-17T05:57:16.726Z,8.43
2019-05-17T05:58:16.983Z,8.64
2019-05-17T05:59:16.277Z,8.69
2019-05-17T06:00:16.564Z,8.69
2019-05-17T06:01:16.641Z,8.76
2019-05-17T06:02:16.899Z,8.78
2019-05-17T06:03:17.162Z,8.95
2019-05-17T06:04:16.430Z,9.03
2019-05-17T06:05:17.305Z,9.06
2019-05-17T06:06:16.713Z,9.06
2019-05-17T06:07:16.972Z,9.17
2019-05-17T06:08:16.240Z,9.13
2019-05-17T06:09:16.525Z,9.17
2019-05-17T06:10:16.782Z,9.20
2019-05-17T06:11:16.854Z,9.16
2019-05-17T06:12:23.553Z,9.27
2019-05-17T06:13:16.450Z,9.26
2019-05-17T06:14:16.720Z,9.24
2019-05-17T06:15:16.981Z,9.43
2019-05-17T06:16:16.254Z,9.55
2019-05-17T06:17:16.526Z,9.61
2019-05-17T06:18:16.794Z,9.65
2019-05-17T06:19:17.074Z,9.68
2019-05-17T06:20:16.358Z,9.85
2019-05-17T06:21:16.418Z,9.85
2019-05-17T06:22:16.694Z,9.84
2019-05-17T06:23:16.961Z,9.81
2019-05-17T06:24:16.230Z,9.85
2019-05-17T06:25:16.493Z,9.93
2019-05-17T06:26:18.146Z,10.06
2019-05-17T06:27:16.540Z,10.39
2019-05-17T06:28:16.805Z,10.52
2019-05-17T06:29:17.075Z,10.74
2019-05-17T06:30:16.358Z,10.61
2019-05-17T06:31:16.434Z,10.39
2019-05-17T06:32:16.728Z,10.58
2019-05-17T06:33:27.870Z,10.47
2019-05-17T06:34:16.501Z,10.41
2019-05-17T06:35:16.791Z,10.43
2019-05-17T06:36:17.061Z,10.51
2019-05-17T06:37:16.720Z,10.48
2019-05-17T06:38:17.027Z,10.63
2019-05-17T06:39:16.302Z,10.50
2019-05-17T06:40:16.588Z,10.39
2019-05-17T06:41:16.629Z,10.31
2019-05-17T06:42:16.922Z,10.31
2019-05-17T06:43:17.198Z,10.29
2019-05-17T06:44:16.471Z,10.52
2019-05-17T06:45:16.744Z,10.71
2019-05-17T06:46:17.010Z,10.71
2019-05-17T06:47:16.279Z,10.68
2019-05-17T06:48:16.550Z,10.67
2019-05-17T06:49:16.816Z,10.82
2019-05-17T06:50:17.113Z,10.77
2019-05-17T06:51:17.159Z,10.81
2019-05-17T06:52:16.423Z,10.78
2019-05-17T06:53:16.691Z,10.79
2019-05-17T06:54:16.953Z,10.77
2019-05-17T06:55:16.215Z,11.00
2019-05-17T06:56:16.489Z,11.12
2019-05-17T06:57:16.754Z,11.40
2019-05-17T06:58:17.016Z,11.68
2019-05-17T06:59:16.287Z,11.77
2019-05-17T07:00:20.451Z,11.75
2019-05-17T07:01:16.637Z,12.01
2019-05-17T07:02:16.898Z,12.01
2019-05-17T07:03:17.166Z,11.65
2019-05-17T07:04:16.432Z,11.55
2019-05-17T07:05:16.700Z,11.88
2019-05-17T07:06:16.959Z,11.78
2019-05-17T07:07:16.225Z,11.71
2019-05-17T07:08:16.514Z,11.60
2019-05-17T07:09:16.777Z,11.68
2019-05-17T07:10:19.451Z,11.72
2019-05-17T07:11:17.110Z,11.55
2019-05-17T07:12:16.381Z,11.46
2019-05-17T07:13:16.647Z,11.27
2019-05-17T07:14:16.904Z,11.34
2019-05-17T07:15:17.168Z,11.44
2019-05-17T07:16:17.059Z,11.64
2019-05-17T07:17:16.328Z,11.65
2019-05-17T07:18:16.595Z,11.70
2019-05-17T07:19:16.867Z,12.16
2019-05-17T07:20:19.267Z,12.20
2019-05-17T07:21:16.209Z,12.23
2019-05-17T07:22:16.538Z,12.13
2019-05-17T07:23:16.800Z,12.12
2019-05-17T07:24:19.430Z,12.28
2019-05-17T07:25:16.940Z,12.28
2019-05-17T07:26:16.212Z,12.15
2019-05-17T07:27:16.485Z,12.39
2019-05-17T07:28:16.745Z,12.60
2019-05-17T07:29:19.266Z,12.64
2019-05-17T07:30:16.729Z,12.61
2019-05-17T07:31:16.749Z,12.78
2019-05-17T07:32:19.282Z,12.75
2019-05-17T07:33:16.769Z,12.75
2019-05-17T07:34:17.034Z,12.72
2019-05-17T07:35:16.314Z,12.64
2019-05-17T07:36:16.575Z,12.29
2019-05-17T07:37:16.832Z,12.25
2019-05-17T07:38:16.674Z,12.35
2019-05-17T07:39:16.939Z,12.28
2019-05-17T07:40:16.274Z,12.49
2019-05-17T07:41:16.318Z,12.53
2019-05-17T07:42:16.585Z,12.33
2019-05-17T07:43:16.848Z,12.33
2019-05-17T07:44:17.121Z,12.81
2019-05-17T07:45:16.402Z,13.11
2019-05-17T07:46:16.671Z,12.84
2019-05-17T07:47:16.945Z,12.89
2019-05-17T07:48:16.218Z,13.19
2019-05-17T07:49:16.477Z,13.26
2019-05-17T07:50:16.757Z,13.21
2019-05-17T07:51:19.006Z,13.15
2019-05-17T07:52:16.875Z,13.49
2019-05-17T07:53:17.144Z,13.15
2019-05-17T07:54:16.403Z,13.19
2019-05-17T07:55:16.686Z,13.39
2019-05-17T07:56:16.960Z,13.50
2019-05-17T07:57:16.265Z,13.58
2019-05-17T07:58:16.576Z,13.57
2019-05-17T07:59:16.888Z,13.42
2019-05-17T08:00:19.933Z,13.34
2019-05-17T08:01:16.234Z,13.23
2019-05-17T08:02:16.500Z,12.77
2019-05-17T08:03:16.757Z,13.05
2019-05-17T08:04:17.035Z,12.94
2019-05-17T08:05:16.311Z,12.77
2019-05-17T08:06:16.585Z,13.11
2019-05-17T08:07:16.846Z,13.25
2019-05-17T08:08:16.862Z,13.30
2019-05-17T08:09:17.141Z,13.14
2019-05-17T08:10:16.415Z,13.11
2019-05-17T08:11:16.478Z,12.89
2019-05-17T08:12:16.749Z,12.91
2019-05-17T08:13:27.037Z,12.79
2019-05-17T08:14:27.434Z,13.12
2019-05-17T08:15:16.588Z,13.22
2019-05-17T08:16:16.856Z,13.19
2019-05-17T08:17:19.671Z,12.92
2019-05-17T08:18:16.280Z,12.92
2019-05-17T08:19:16.546Z,12.94
2019-05-17T08:20:16.819Z,13.12
2019-05-17T08:21:16.861Z,12.85
2019-05-17T08:22:17.131Z,12.95
2019-05-17T08:23:16.401Z,12.95
2019-05-17T08:24:16.669Z,13.04
2019-05-17T08:25:16.947Z,12.88
2019-05-17T08:26:16.211Z,12.78
2019-05-17T08:27:16.513Z,12.89
2019-05-17T08:28:16.875Z,13.01
2019-05-17T08:29:17.156Z,13.30
2019-05-17T08:30:16.445Z,13.37
2019-05-17T08:31:16.517Z,13.49
2019-05-17T08:32:16.793Z,13.50
2019-05-17T08:33:19.342Z,13.50
2019-05-17T08:34:16.826Z,13.37
2019-05-17T08:35:17.117Z,13.60
2019-05-17T08:36:16.399Z,13.67
2019-05-17T08:37:16.686Z,13.58
2019-05-17T08:38:16.960Z,13.65
2019-05-17T08:39:16.231Z,13.73
2019-05-17T08:40:16.495Z,13.65
2019-05-17T08:41:16.559Z,13.18
2019-05-17T08:42:16.835Z,13.32
2019-05-17T08:43:17.103Z,13.44
2019-05-17T08:44:16.366Z,13.46
2019-05-17T08:45:16.632Z,13.23
2019-05-17T08:46:16.904Z,13.46
2019-05-17T08:47:20.684Z,13.84
2019-05-17T08:48:16.381Z,14.00
2019-05-17T08:49:16.638Z,13.85
2019-05-17T08:50:16.909Z,13.95
2019-05-17T08:51:16.978Z,14.05
2019-05-17T08:52:16.244Z,13.85
2019-05-17T08:53:16.516Z,13.81
2019-05-17T08:54:16.781Z,13.98
2019-05-17T08:55:17.049Z,14.41
2019-05-17T08:56:16.315Z,14.50
2019-05-17T08:57:16.840Z,14.35
2019-05-17T08:58:17.101Z,14.39
2019-05-17T08:59:16.388Z,14.28
2019-05-17T09:00:16.670Z,14.11
2019-05-17T09:01:16.728Z,14.33
2019-05-17T09:02:16.784Z,14.37
2019-05-17T09:03:19.426Z,14.46
2019-05-17T09:04:16.984Z,14.55
2019-05-17T09:05:16.270Z,14.56
2019-05-17T09:06:16.549Z,14.50
2019-05-17T09:07:16.816Z,14.52
2019-05-17T09:08:17.071Z,14.67
2019-05-17T09:09:16.348Z,14.33
2019-05-17T09:10:16.621Z,14.41
2019-05-17T09:11:16.680Z,14.50
2019-05-17T09:12:16.949Z,14.40
2019-05-17T09:13:16.232Z,14.28
2019-05-17T09:14:16.499Z,14.57
2019-05-17T09:15:16.765Z,14.28
2019-05-17T09:16:19.437Z,14.19
2019-05-17T09:17:19.222Z,14.44
2019-05-17T09:18:16.742Z,14.23
2019-05-17T09:19:19.053Z,14.53
2019-05-17T09:20:16.765Z,14.73
2019-05-17T09:21:16.857Z,14.88
2019-05-17T09:22:17.144Z,14.98
2019-05-17T09:23:16.429Z,14.99
2019-05-17T09:24:16.697Z,14.70
2019-05-17T09:25:19.115Z,14.44
2019-05-17T09:26:16.335Z,14.13
2019-05-17T09:27:16.607Z,14.50
2019-05-17T09:28:16.866Z,14.40
2019-05-17T09:29:17.137Z,14.43
2019-05-17T09:30:16.419Z,14.46
2019-05-17T09:31:16.477Z,14.52
2019-05-17T09:32:16.743Z,14.28
2019-05-17T09:33:19.121Z,14.50
2019-05-17T09:34:16.530Z,14.66
2019-05-17T09:35:16.806Z,14.70
2019-05-17T09:36:17.080Z,14.71
2019-05-17T09:37:18.882Z,14.76
2019-05-17T09:38:16.727Z,14.53
2019-05-17T09:39:16.987Z,14.67
2019-05-17T09:40:16.271Z,14.77
2019-05-17T09:41:16.325Z,14.85
2019-05-17T09:42:16.585Z,14.94
2019-05-17T09:43:16.858Z,14.71
2019-05-17T09:44:17.134Z,14.80
2019-05-17T09:45:16.415Z,14.71
2019-05-17T09:46:16.693Z,14.59
2019-05-17T09:47:16.962Z,14.52
2019-05-17T09:48:16.226Z,14.63
2019-05-17T09:49:16.496Z,14.70
2019-05-17T09:50:16.780Z,14.73
2019-05-17T09:51:16.838Z,14.62
2019-05-17T09:52:17.102Z,14.49
2019-05-17T09:53:16.372Z,14.62
2019-05-17T09:54:16.640Z,14.74
2019-05-17T09:55:16.912Z,14.66
2019-05-17T09:56:16.762Z,14.63
2019-05-17T09:57:17.083Z,14.83
2019-05-17T09:58:16.346Z,14.85
2019-05-17T09:59:16.611Z,14.80
2019-05-17T10:00:16.894Z,14.87
2019-05-17T10:01:16.972Z,14.87
2019-05-17T10:02:16.234Z,14.92
2019-05-17T10:03:16.524Z,14.92
2019-05-17T10:04:16.817Z,15.08
2019-05-17T10:05:17.094Z,14.74
2019-05-17T10:06:16.363Z,14.77
2019-05-17T10:07:16.634Z,14.98
2019-05-17T10:08:16.897Z,15.11
2019-05-17T10:09:19.477Z,15.01
2019-05-17T10:10:16.917Z,15.06
2019-05-17T10:11:16.967Z,15.08
2019-05-17T10:12:16.234Z,15.18
2019-05-17T10:13:16.500Z,15.11
2019-05-17T10:14:25.664Z,15.26
2019-05-17T10:15:17.014Z,15.08
2019-05-17T10:16:16.289Z,15.02
2019-05-17T10:17:16.553Z,15.28
2019-05-17T10:18:16.821Z,14.87
2019-05-17T10:19:17.108Z,14.94
2019-05-17T10:20:16.397Z,15.19
2019-05-17T10:21:16.442Z,15.32
2019-05-17T10:22:16.702Z,15.45
2019-05-17T10:23:19.498Z,15.54
2019-05-17T10:24:17.053Z,15.54
2019-05-17T10:25:16.332Z,15.62
2019-05-17T10:26:16.664Z,15.76
2019-05-17T10:27:16.992Z,15.82
2019-05-17T10:28:16.254Z,16.02
2019-05-17T10:29:16.522Z,16.15
2019-05-17T10:30:16.849Z,15.94
2019-05-17T10:31:16.906Z,15.57
2019-05-17T10:32:20.286Z,15.81
2019-05-17T10:33:16.917Z,15.94
2019-05-17T10:34:17.182Z,16.05
2019-05-17T10:35:16.448Z,16.07
2019-05-17T10:36:16.715Z,16.22
2019-05-17T10:37:20.128Z,16.07
2019-05-17T10:38:16.721Z,16.08
2019-05-17T10:39:19.254Z,15.82
2019-05-17T10:40:16.687Z,16.00
2019-05-17T10:41:16.723Z,15.76
2019-05-17T10:42:16.988Z,15.95
2019-05-17T10:43:16.261Z,16.08
2019-05-17T10:44:16.534Z,15.94
2019-05-17T10:45:16.841Z,16.05
2019-05-17T10:46:17.113Z,15.41
2019-05-17T10:47:16.391Z,15.69
2019-05-17T10:48:16.670Z,15.78
2019-05-17T10:49:16.933Z,15.64
2019-05-17T10:50:17.203Z,15.81
2019-05-17T10:51:16.283Z,15.50
2019-05-17T10:52:16.559Z,15.67
2019-05-17T10:53:16.820Z,15.92
2019-05-17T10:54:17.086Z,15.92
2019-05-17T10:55:16.369Z,16.18
2019-05-17T10:56:16.635Z,16.31
2019-05-17T10:57:19.281Z,16.33
2019-05-17T10:58:16.809Z,16.14
2019-05-17T10:59:17.097Z,15.78
2019-05-17T11:00:16.373Z,15.92
2019-05-17T11:01:16.435Z,16.38
2019-05-17T11:02:16.703Z,16.57
2019-05-17T11:03:16.978Z,16.83
2019-05-17T11:04:16.257Z,16.78
2019-05-17T11:05:16.521Z,16.74
2019-05-17T11:06:16.781Z,16.81
2019-05-17T11:07:19.730Z,16.97
2019-05-17T11:08:16.308Z,16.53
2019-05-17T11:09:16.577Z,16.63
2019-05-17T11:10:19.272Z,17.10
2019-05-17T11:11:16.909Z,17.11
2019-05-17T11:12:17.179Z,16.76
2019-05-17T11:13:16.436Z,16.46
2019-05-17T11:14:16.698Z,16.66
2019-05-17T11:15:16.973Z,16.70
2019-05-17T11:16:16.236Z,15.91
2019-05-17T11:17:16.510Z,16.05
2019-05-17T11:18:16.827Z,16.32
2019-05-17T11:19:17.092Z,16.36
2019-05-17T11:20:16.372Z,16.52
2019-05-17T11:21:16.422Z,16.86
2019-05-17T11:22:16.712Z,16.43
2019-05-17T11:23:16.985Z,16.57
2019-05-17T11:24:16.257Z,16.53
2019-05-17T11:25:16.529Z,16.55
2019-05-17T11:26:16.833Z,16.70
2019-05-17T11:27:17.108Z,16.59
2019-05-17T11:28:16.379Z,16.57
2019-05-17T11:29:16.659Z,16.15
2019-05-17T11:30:16.951Z,16.45
2019-05-17T11:31:17.018Z,16.66
2019-05-17T11:32:16.354Z,16.73
2019-05-17T11:33:16.673Z,16.62
2019-05-17T11:34:16.943Z,16.52
2019-05-17T11:35:16.213Z,16.46
2019-05-17T11:36:16.492Z,16.78
2019-05-17T11:37:16.788Z,17.04
2019-05-17T11:38:17.046Z,17.15
2019-05-17T11:39:16.320Z,17.29
2019-05-17T11:40:16.606Z,17.31
2019-05-17T11:41:20.891Z,16.95
2019-05-17T11:42:16.311Z,16.97
2019-05-17T11:43:16.594Z,17.00
2019-05-17T11:44:16.864Z,16.71
2019-05-17T11:45:26.996Z,16.84
2019-05-17T11:46:16.508Z,16.60
2019-05-17T11:47:16.795Z,16.33
2019-05-17T11:48:17.061Z,16.52
2019-05-17T11:49:16.366Z,16.74
2019-05-17T11:50:16.670Z,17.01
2019-05-17T11:51:16.734Z,17.19
2019-05-17T11:52:17.002Z,17.05
2019-05-17T11:53:16.258Z,16.98
2019-05-17T11:54:16.534Z,17.28
2019-05-17T11:55:16.808Z,17.39
2019-05-17T11:56:17.074Z,17.62
2019-05-17T11:57:16.341Z,17.39
2019-05-17T11:58:16.605Z,17.43
2019-05-17T11:59:16.875Z,17.41
2019-05-17T12:00:17.155Z,16.95
2019-05-17T12:01:17.212Z,16.62
2019-05-17T12:02:16.504Z,16.70
2019-05-17T12:03:16.770Z,16.94
2019-05-17T12:04:17.046Z,16.97
2019-05-17T12:05:16.342Z,16.70
2019-05-17T12:06:16.619Z,16.68
2019-05-17T12:07:16.894Z,16.83
2019-05-17T12:08:17.168Z,16.88
2019-05-17T12:09:16.423Z,16.87
2019-05-17T12:10:16.709Z,16.86
2019-05-17T12:11:16.763Z,16.95
2019-05-17T12:12:17.031Z,16.98
2019-05-17T12:13:16.303Z,17.15
2019-05-17T12:14:16.578Z,17.22
2019-05-17T12:15:16.855Z,17.42
2019-05-17T12:16:17.123Z,17.40
2019-05-17T12:17:16.398Z,17.36
2019-05-17T12:18:16.703Z,17.39
2019-05-17T12:19:16.982Z,17.37
2019-05-17T12:20:16.253Z,17.15
2019-05-17T12:21:16.331Z,17.19
2019-05-17T12:22:16.590Z,17.11
2019-05-17T12:23:16.869Z,17.08
2019-05-17T12:24:17.138Z,17.05
2019-05-17T12:25:16.417Z,17.18
2019-05-17T12:26:16.690Z,17.44
2019-05-17T12:27:16.966Z,17.40
2019-05-17T12:28:16.249Z,17.19
2019-05-17T12:29:16.536Z,16.95
2019-05-17T12:30:16.823Z,17.04
2019-05-17T12:31:16.898Z,17.15
2019-05-17T12:32:17.350Z,16.95
2019-05-17T12:33:16.625Z,16.97
2019-05-17T12:34:16.894Z,17.04
2019-05-17T12:35:17.174Z,17.04
2019-05-17T12:36:16.432Z,17.05
2019-05-17T12:37:16.710Z,17.08
2019-05-17T12:38:16.974Z,17.11
2019-05-17T12:39:16.215Z,17.16
2019-05-17T12:40:16.487Z,17.22
2019-05-17T12:41:16.551Z,17.29
2019-05-17T12:42:16.830Z,17.29
2019-05-17T12:43:17.132Z,17.37
2019-05-17T12:44:16.399Z,17.33
2019-05-17T12:45:16.657Z,17.43
2019-05-17T12:46:16.925Z,17.50
2019-05-17T12:47:17.202Z,17.52
2019-05-17T12:48:16.472Z,17.30
2019-05-17T12:49:16.735Z,17.16
2019-05-17T12:50:17.024Z,17.19
2019-05-17T12:51:17.077Z,17.14
2019-05-17T12:52:16.349Z,17.04
2019-05-17T12:53:16.615Z,17.04
2019-05-17T12:54:16.882Z,17.01
2019-05-17T12:55:17.162Z,17.09
2019-05-17T12:56:16.432Z,17.11
2019-05-17T12:57:16.709Z,17.21
2019-05-17T12:58:16.977Z,17.15
2019-05-17T12:59:16.258Z,17.16
2019-05-17T13:00:16.551Z,17.21
2019-05-17T13:01:16.601Z,17.18
2019-05-17T13:02:16.870Z,17.22
2019-05-17T13:03:17.151Z,17.29
2019-05-17T13:04:16.439Z,17.26
2019-05-17T13:05:16.714Z,17.30